Time;durP1;ratioP1;P1;durP2;ratioP2;P2;SDS_P1;SDS_P2;PMS_P1;PMS_P2;Temp;Humidity;BMP_temperature;BMP_pressure;BME280_temperature;BME280_humidity;BME280_pressure;Samples;Min_cycle;Max_cycle;Signal;HPM_P1;HPM_P2
2022/07/27 00:00:19;;;;;;;2.33;1.10;;;;;;;11.30;100.00;101865.84;1043933;28;20303;-81
2022/07/27 00:00:51;;;;;;;1.00;0.70;;;;;;;11.31;100.00;101856.81;1038227;28;20293;-81
2022/07/27 00:01:22;;;;;;;3.17;0.82;;;;;;;11.32;100.00;101855.81;1037234;28;20117;-80
2022/07/27 00:01:55;;;;;;;2.00;1.08;;;;;;;11.32;100.00;101857.66;1042017;28;20310;-80
2022/07/27 00:02:27;;;;;;;4.72;0.77;;;;;;;11.36;100.00;101857.06;1040075;28;20053;-80
2022/07/27 00:02:58;;;;;;;1.67;1.42;;;;;;;11.49;100.00;101850.94;1036555;28;20296;-80
2022/07/27 00:03:30;;;;;;;1.55;0.88;;;;;;;11.60;100.00;101857.59;1037946;28;21602;-80
2022/07/27 00:04:02;;;;;;;0.90;0.80;;;;;;;11.66;100.00;101856.78;1036615;28;20792;-77
2022/07/27 00:04:33;;;;;;;4.07;1.02;;;;;;;11.69;100.00;101859.88;1043916;28;20441;-77
2022/07/27 00:05:05;;;;;;;1.85;0.60;;;;;;;11.67;100.00;101863.78;1044625;28;20334;-76
2022/07/27 00:05:38;;;;;;;0.90;0.60;;;;;;;11.68;100.00;101854.75;1048348;28;20291;-76
2022/07/27 00:06:10;;;;;;;1.77;0.68;;;;;;;11.76;100.00;101857.25;1046490;28;20059;-76
2022/07/27 00:06:41;;;;;;;1.88;0.65;;;;;;;11.81;100.00;101860.19;1044115;28;20314;-76
2022/07/27 00:07:13;;;;;;;1.15;0.75;;;;;;;11.87;100.00;101854.06;1043776;28;20295;-76
2022/07/27 00:07:45;;;;;;;0.70;0.70;;;;;;;11.85;100.00;101861.44;1044858;28;20429;-76
2022/07/27 00:08:19;;;;;;;3.67;0.90;;;;;;;11.85;100.00;101856.09;1048120;28;20306;-76
2022/07/27 00:08:51;;;;;;;1.67;0.85;;;;;;;11.88;100.00;101855.69;1048512;28;20299;-76
2022/07/27 00:09:23;;;;;;;2.03;0.63;;;;;;;11.90;99.93;101859.00;1048152;28;20325;-76
2022/07/27 00:09:54;;;;;;;0.70;0.70;;;;;;;11.91;99.41;101849.13;1048178;28;20804;-76
2022/07/27 00:10:26;;;;;;;1.60;0.70;;;;;;;11.93;99.00;101853.25;1044145;28;20426;-76
2022/07/27 00:10:58;;;;;;;1.77;1.05;;;;;;;11.95;98.77;101853.03;1042999;28;20667;-76
2022/07/27 00:11:29;;;;;;;5.32;1.58;;;;;;;11.98;99.00;101853.47;1041649;28;20308;-77
2022/07/27 00:12:01;;;;;;;0.80;0.80;;;;;;;12.01;98.99;101847.72;1044636;28;20056;-76
2022/07/27 00:12:33;;;;;;;3.20;0.77;;;;;;;11.98;98.58;101850.78;1043908;28;20041;-76
2022/07/27 00:13:05;;;;;;;2.92;0.77;;;;;;;11.96;98.37;101852.84;1044572;28;20472;-76
2022/07/27 00:13:37;;;;;;;3.75;1.13;;;;;;;11.73;98.23;101852.31;1048421;28;20298;-76
2022/07/27 00:14:08;;;;;;;3.75;1.25;;;;;;;11.50;98.06;101847.25;1040467;28;20539;-77
2022/07/27 00:14:40;;;;;;;0.90;0.90;;;;;;;11.33;98.26;101849.44;1041147;28;20464;-76
2022/07/27 00:15:11;;;;;;;0.65;0.60;;;;;;;11.23;98.55;101857.00;1039687;28;20041;-76
2022/07/27 00:15:43;;;;;;;1.63;0.73;;;;;;;11.20;98.79;101860.00;1040907;28;20720;-76
2022/07/27 00:16:15;;;;;;;1.27;1.08;;;;;;;11.15;99.30;101859.78;1043824;28;20299;-76
2022/07/27 00:16:46;;;;;;;0.95;0.73;;;;;;;11.16;99.26;101850.75;1039884;28;20523;-76
2022/07/27 00:17:22;;;;;;;2.45;0.93;;;;;;;11.12;99.49;101854.84;1035984;28;20637;-76
2022/07/27 00:17:55;;;;;;;0.98;0.60;;;;;;;11.04;99.44;101852.34;1036992;28;20292;-76
2022/07/27 00:18:27;;;;;;;1.48;1.38;;;;;;;10.91;99.83;101852.22;1039661;28;20308;-76
2022/07/27 00:18:58;;;;;;;1.58;0.93;;;;;;;10.79;100.00;101858.09;1039465;28;20296;-76
2022/07/27 00:19:30;;;;;;;5.03;0.82;;;;;;;10.75;100.00;101853.34;1040841;28;20873;-76
2022/07/27 00:20:02;;;;;;;1.02;0.70;;;;;;;10.68;100.00;101847.09;1046815;28;20037;-76
2022/07/27 00:20:35;;;;;;;0.98;0.80;;;;;;;10.62;100.00;101858.53;1043866;28;20049;-76
2022/07/27 00:21:07;;;;;;;2.03;1.02;;;;;;;10.65;100.00;101864.31;1039764;28;20085;-76
2022/07/27 00:21:38;;;;;;;0.65;0.65;;;;;;;10.68;100.00;101861.28;1040061;28;20307;-76
2022/07/27 00:22:16;;;;;;;1.38;0.80;;;;;;;10.61;100.00;101851.56;1037412;28;20045;-76
2022/07/27 00:22:48;;;;;;;1.40;1.27;;;;;;;10.68;100.00;101852.44;1039733;28;20372;-76
2022/07/27 00:23:20;;;;;;;2.63;0.73;;;;;;;10.86;100.00;101851.97;1041479;28;20060;-76
2022/07/27 00:23:53;;;;;;;1.05;0.63;;;;;;;10.76;100.00;101849.66;1040924;28;20046;-76
2022/07/27 00:24:24;;;;;;;1.92;0.80;;;;;;;10.76;100.00;101850.47;1040068;28;20328;-76
2022/07/27 00:24:56;;;;;;;1.05;0.63;;;;;;;10.71;100.00;101858.22;1039280;28;20383;-76
2022/07/27 00:25:28;;;;;;;2.83;0.80;;;;;;;10.69;100.00;101859.44;1036462;28;20289;-77
2022/07/27 00:25:59;;;;;;;1.13;0.90;;;;;;;10.52;100.00;101851.69;1039883;28;20442;-76
2022/07/27 00:26:31;;;;;;;1.45;0.70;;;;;;;10.51;100.00;101851.91;1039546;28;20668;-76
2022/07/27 00:27:03;;;;;;;0.80;0.77;;;;;;;10.51;100.00;101862.56;1040442;28;20740;-76
2022/07/27 00:27:34;;;;;;;2.25;1.02;;;;;;;10.46;100.00;101856.97;1044434;28;20836;-76
2022/07/27 00:28:06;;;;;;;2.28;1.05;;;;;;;10.42;100.00;101863.69;1039686;28;20412;-76
2022/07/27 00:28:37;;;;;;;0.80;0.80;;;;;;;10.38;100.00;101859.75;1031849;28;20297;-76
2022/07/27 00:29:09;;;;;;;1.80;0.80;;;;;;;10.39;100.00;101856.88;1035743;28;20353;-76
2022/07/27 00:29:41;;;;;;;3.35;0.80;;;;;;;10.50;100.00;101864.41;1027979;28;20309;-76
2022/07/27 00:30:13;;;;;;;2.47;1.00;;;;;;;10.46;100.00;101856.97;1026637;28;20356;-76
2022/07/27 00:30:45;;;;;;;1.30;0.80;;;;;;;10.42;100.00;101861.88;1031680;28;20298;-76
2022/07/27 00:31:16;;;;;;;1.45;0.88;;;;;;;10.38;100.00;101865.06;1032931;28;20724;-76
2022/07/27 00:31:48;;;;;;;1.83;0.82;;;;;;;10.36;100.00;101859.94;1039299;28;20304;-76
2022/07/27 00:32:20;;;;;;;0.60;0.60;;;;;;;10.36;100.00;101859.09;1047728;28;20290;-76
2022/07/27 00:32:52;;;;;;;2.35;1.00;;;;;;;10.31;100.00;101862.34;1042477;28;20303;-76
2022/07/27 00:33:23;;;;;;;2.70;0.80;;;;;;;10.32;100.00;101863.16;1036141;28;20051;-76
2022/07/27 00:33:55;;;;;;;1.55;1.15;;;;;;;10.31;100.00;101857.03;1040025;28;20292;-76
2022/07/27 00:34:27;;;;;;;2.20;0.85;;;;;;;10.45;100.00;101863.31;1040201;28;20300;-77
2022/07/27 00:34:58;;;;;;;0.88;0.70;;;;;;;10.49;100.00;101865.41;1048275;28;20037;-76
2022/07/27 00:35:30;;;;;;;1.02;0.70;;;;;;;10.60;100.00;101856.06;1052565;28;20306;-76
2022/07/27 00:36:02;;;;;;;2.22;1.02;;;;;;;10.66;100.00;101860.63;1052402;28;20376;-76
2022/07/27 00:36:34;;;;;;;3.60;1.55;;;;;;;10.68;100.00;101858.63;1048161;28;20661;-76
2022/07/27 00:37:05;;;;;;;1.10;1.00;;;;;;;10.75;100.00;101859.50;1047901;28;20505;-76
2022/07/27 00:37:38;;;;;;;1.58;0.90;;;;;;;10.81;100.00;101856.06;1044159;28;20284;-76
2022/07/27 00:38:10;;;;;;;2.45;1.02;;;;;;;10.88;100.00;101857.94;1036329;28;20308;-76
2022/07/27 00:38:41;;;;;;;3.38;0.80;;;;;;;10.90;100.00;101858.56;1039128;28;20787;-76
2022/07/27 00:39:13;;;;;;;3.65;0.93;;;;;;;10.76;100.00;101861.16;1040731;28;20640;-76
2022/07/27 00:39:45;;;;;;;2.22;1.40;;;;;;;10.60;100.00;101861.41;1041040;28;20381;-76
2022/07/27 00:40:17;;;;;;;2.00;1.15;;;;;;;10.62;100.00;101858.53;1047497;28;20044;-76
2022/07/27 00:40:48;;;;;;;2.55;1.33;;;;;;;10.63;100.00;101863.69;1047512;28;20789;-76
2022/07/27 00:41:20;;;;;;;1.13;0.82;;;;;;;10.59;100.00;101854.41;1044279;28;20295;-76
2022/07/27 00:41:51;;;;;;;1.00;0.82;;;;;;;10.59;100.00;101859.75;1045171;28;20315;-76
2022/07/27 00:42:26;;;;;;;0.80;0.80;;;;;;;10.59;100.00;101859.75;1048106;28;20298;-76
2022/07/27 00:42:58;;;;;;;2.45;0.80;;;;;;;10.51;100.00;101859.88;1043607;28;20354;-76
2022/07/27 00:43:30;;;;;;;0.60;0.60;;;;;;;10.45;100.00;101863.31;1040665;28;20802;-76
2022/07/27 00:44:04;;;;;;;1.50;0.80;;;;;;;10.32;100.00;101855.19;1039916;28;20311;-76
2022/07/27 00:44:35;;;;;;;0.73;0.73;;;;;;;10.36;100.00;101859.09;1039540;28;20315;-76
2022/07/27 00:45:08;;;;;;;2.88;0.88;;;;;;;10.38;100.00;101857.09;1040961;28;20299;-77
2022/07/27 00:45:39;;;;;;;2.17;1.23;;;;;;;10.39;100.00;101861.38;1040548;28;20331;-77
2022/07/27 00:46:11;;;;;;;2.90;0.85;;;;;;;10.36;100.00;101861.78;1043864;28;20291;-77
2022/07/27 00:46:42;;;;;;;1.75;0.85;;;;;;;10.37;100.00;101860.75;1044475;28;20686;-76
2022/07/27 00:47:14;;;;;;;0.98;0.98;;;;;;;10.25;100.00;101859.63;1048567;28;20309;-76
2022/07/27 00:47:46;;;;;;;1.73;0.90;;;;;;;10.26;100.00;101855.94;1052391;28;20298;-77
2022/07/27 00:48:23;;;;;;;6.15;2.10;;;;;;;10.39;100.00;101864.06;1043715;28;20310;-76
2022/07/27 00:48:57;;;;;;;1.15;0.90;;;;;;;10.38;100.00;101857.09;1043653;28;20299;-76
2022/07/27 00:49:29;;;;;;;3.22;1.13;;;;;;;10.43;100.00;101854.69;1041093;28;20303;-76
2022/07/27 00:50:01;;;;;;;0.93;0.82;;;;;;;10.49;100.00;101853.94;1043356;28;20426;-76
2022/07/27 00:50:33;;;;;;;3.17;0.80;;;;;;;10.49;100.00;101853.94;1047758;28;20302;-76
2022/07/27 00:51:05;;;;;;;1.67;1.23;;;;;;;10.40;100.00;101855.03;1043945;28;20314;-76
2022/07/27 00:51:37;;;;;;;2.47;1.20;;;;;;;10.36;100.00;101851.13;1043542;28;20292;-76
2022/07/27 00:52:08;;;;;;;1.00;0.90;;;;;;;10.33;100.00;101857.66;1044066;28;20295;-76
2022/07/27 00:52:41;;;;;;;5.55;0.90;;;;;;;10.28;100.00;101851.25;1044198;28;20797;-76
2022/07/27 00:53:13;;;;;;;1.67;0.93;;;;;;;10.32;100.00;101858.66;1043707;28;20844;-76
2022/07/27 00:53:46;;;;;;;1.80;1.40;;;;;;;10.42;100.00;101858.38;1039947;28;20667;-76
2022/07/27 00:54:18;;;;;;;3.22;0.70;;;;;;;10.31;100.00;101850.88;1032876;28;20340;-76
2022/07/27 00:54:50;;;;;;;2.10;1.10;;;;;;;10.31;100.00;101850.88;1032440;28;20292;-76
2022/07/27 00:55:22;;;;;;;0.95;0.80;;;;;;;10.30;100.00;101850.03;1032345;28;20819;-76
2022/07/27 00:55:53;;;;;;;2.60;1.40;;;;;;;10.50;100.00;101850.25;1033028;28;20420;-76
2022/07/27 00:56:25;;;;;;;1.02;0.90;;;;;;;10.55;100.00;101845.16;1033582;28;20660;-76
2022/07/27 00:56:56;;;;;;;1.42;1.00;;;;;;;10.57;100.00;101845.78;1036119;28;20297;-77
2022/07/27 00:57:28;;;;;;;1.33;1.17;;;;;;;10.60;100.00;101860.56;1035841;28;20299;-76
2022/07/27 00:58:02;;;;;;;1.42;1.33;;;;;;;10.54;100.00;101851.50;1041088;28;20048;-76
2022/07/27 00:58:34;;;;;;;1.83;1.20;;;;;;;10.61;100.00;101855.06;1044639;28;20786;-76
2022/07/27 00:59:06;;;;;;;3.08;1.05;;;;;;;10.55;100.00;101850.50;1044649;28;20798;-77
2022/07/27 00:59:42;;;;;;;3.40;1.30;;;;;;;10.49;100.00;101853.94;1043954;28;20303;-76
2022/07/27 01:00:14;;;;;;;1.23;1.13;;;;;;;10.47;100.00;101845.31;1039672;28;20807;-76
2022/07/27 01:00:45;;;;;;;1.90;1.10;;;;;;;10.42;100.00;101845.06;1040731;28;20033;-76
2022/07/27 01:01:17;;;;;;;1.02;0.98;;;;;;;10.40;100.00;101849.72;1044794;28;20307;-76
2022/07/27 01:01:49;;;;;;;3.70;1.30;;;;;;;10.44;100.00;101851.84;1044404;28;20291;-76
2022/07/27 01:02:25;;;;;;;3.25;1.40;;;;;;;10.46;100.00;101847.16;1048184;28;20301;-76
2022/07/27 01:02:57;;;;;;;1.02;0.88;;;;;;;10.50;100.00;101847.59;1043489;28;20309;-76
2022/07/27 01:03:32;;;;;;;8.10;1.00;;;;;;;10.44;100.00;101851.00;1043803;28;20417;-76
2022/07/27 01:04:04;;;;;;;3.60;1.30;;;;;;;10.42;100.00;101847.72;1037215;28;20384;-76
2022/07/27 01:04:36;;;;;;;2.08;1.27;;;;;;;10.46;100.00;101844.47;1039408;28;20296;-76
2022/07/27 01:05:08;;;;;;;1.42;1.30;;;;;;;10.52;100.00;101842.88;1035750;28;20692;-76
2022/07/27 01:05:40;;;;;;;1.17;0.98;;;;;;;10.50;100.00;101843.09;1035240;28;20644;-76
2022/07/27 01:06:14;;;;;;;1.25;1.15;;;;;;;10.61;100.00;101841.72;1040576;28;20296;-76
2022/07/27 01:06:46;;;;;;;1.23;1.13;;;;;;;10.54;100.00;101846.19;1043935;28;20400;-76
2022/07/27 01:07:18;;;;;;;4.63;1.65;;;;;;;10.45;100.00;101847.34;1040175;28;20303;-76
2022/07/27 01:07:49;;;;;;;2.83;1.55;;;;;;;10.37;100.00;101844.78;1039815;28;20034;-76
2022/07/27 01:08:21;;;;;;;1.85;1.10;;;;;;;10.47;100.00;101842.66;1035613;28;20771;-76
2022/07/27 01:09:55;;;;;;;1.67;1.10;;;;;;;10.58;100.00;101842.13;1033417;28;20312;-75
2022/07/27 01:09:57;;;;;;;3.05;2.33;;;;;;;10.44;100.00;101848.34;1035221;28;20331;-76
2022/07/27 01:10:30;;;;;;;1.33;1.15;;;;;;;10.49;100.00;101838.78;1036301;28;20368;-75
2022/07/27 01:11:02;;;;;;;1.40;0.98;;;;;;;10.45;100.00;101842.84;1044549;28;20310;-75
2022/07/27 01:11:33;;;;;;;4.65;1.02;;;;;;;10.47;100.00;101835.47;1042585;28;20299;-75
2022/07/27 01:12:07;;;;;;;4.13;1.83;;;;;;;10.43;100.00;101838.72;1040387;28;20657;-75
2022/07/27 01:12:39;;;;;;;1.23;1.13;;;;;;;10.41;100.00;101846.06;1039994;28;20308;-75
2022/07/27 01:13:11;;;;;;;1.27;1.17;;;;;;;10.36;100.00;101840.47;1040205;28;20363;-76
2022/07/27 01:13:44;;;;;;;2.35;1.25;;;;;;;10.32;100.00;101841.88;1043844;28;20299;-75
2022/07/27 01:14:16;;;;;;;2.15;1.30;;;;;;;10.48;100.00;101838.97;1042561;28;20307;-76
2022/07/27 01:14:49;;;;;;;2.72;1.27;;;;;;;10.49;100.00;101837.94;1047892;28;20048;-75
2022/07/27 01:15:21;;;;;;;1.13;0.90;;;;;;;10.57;100.00;101843.13;1043775;28;20299;-76
2022/07/27 01:15:53;;;;;;;2.50;1.10;;;;;;;10.68;100.00;101837.31;1036107;28;20308;-75
2022/07/27 01:16:24;;;;;;;1.30;1.20;;;;;;;10.71;100.00;101834.25;1031566;28;20289;-76
2022/07/27 01:16:56;;;;;;;1.63;1.20;;;;;;;10.73;100.00;101839.38;1031736;28;20308;-76
2022/07/27 01:17:31;;;;;;;0.80;0.77;;;;;;;10.55;100.00;101841.69;1035737;28;20301;-76
2022/07/27 01:18:03;;;;;;;2.85;1.20;;;;;;;10.61;100.00;101841.72;1033393;28;20800;-76
2022/07/27 01:18:37;;;;;;;1.20;1.10;;;;;;;10.58;100.00;101841.28;1036278;28;20668;-76
2022/07/27 01:19:09;;;;;;;5.07;1.20;;;;;;;10.46;100.00;101846.31;1040882;28;20663;-75
2022/07/27 01:19:42;;;;;;;1.42;1.02;;;;;;;10.44;100.00;101841.19;1036753;28;20285;-76
2022/07/27 01:20:14;;;;;;;2.05;1.00;;;;;;;10.49;100.00;101843.28;1035014;28;20305;-75
2022/07/27 01:20:46;;;;;;;1.23;0.82;;;;;;;10.42;100.00;101853.06;1032277;28;20296;-76
2022/07/27 01:21:17;;;;;;;1.27;1.17;;;;;;;10.41;100.00;101846.91;1036969;28;20402;-75
2022/07/27 01:21:49;;;;;;;1.13;0.90;;;;;;;10.36;100.00;101843.94;1042714;28;20299;-76
2022/07/27 01:22:20;;;;;;;5.72;1.40;;;;;;;10.36;100.00;101851.13;1044478;28;20295;-76
2022/07/27 01:22:52;;;;;;;2.15;0.98;;;;;;;10.29;100.00;101842.25;1047837;28;20294;-76
2022/07/27 01:23:24;;;;;;;3.80;1.25;;;;;;;10.32;100.00;101841.88;1043125;28;20303;-76
2022/07/27 01:23:55;;;;;;;1.42;1.33;;;;;;;10.42;100.00;101847.72;1040285;28;20288;-75
2022/07/27 01:24:27;;;;;;;4.43;1.00;;;;;;;10.37;100.00;101844.78;1040527;28;20291;-76
2022/07/27 01:24:59;;;;;;;3.00;1.00;;;;;;;10.41;100.00;101843.41;1044274;28;20299;-76
2022/07/27 01:25:31;;;;;;;1.20;1.08;;;;;;;10.44;100.00;101853.69;1048433;28;20302;-76
2022/07/27 01:26:04;;;;;;;2.78;1.70;;;;;;;10.34;100.00;101840.66;1047658;28;20297;-75
2022/07/27 01:26:37;;;;;;;2.53;1.20;;;;;;;10.31;100.00;101841.03;1047716;28;20377;-76
2022/07/27 01:27:09;;;;;;;2.88;1.25;;;;;;;10.34;100.00;101847.81;1043457;28;20310;-75
2022/07/27 01:27:40;;;;;;;1.02;0.90;;;;;;;10.28;100.00;101845.94;1044838;28;20658;-76
2022/07/27 01:28:12;;;;;;;2.05;1.00;;;;;;;10.20;100.00;101854.84;1043679;28;20307;-75
2022/07/27 01:28:44;;;;;;;1.48;1.13;;;;;;;10.15;100.00;101847.41;1039847;28;20888;-75
2022/07/27 01:29:16;;;;;;;2.67;1.27;;;;;;;10.15;100.00;101851.91;1039566;28;20350;-76
2022/07/27 01:29:47;;;;;;;1.25;1.15;;;;;;;10.11;100.00;101846.13;1041543;28;20292;-77
2022/07/27 01:30:25;;;;;;;2.15;0.90;;;;;;;10.07;100.00;101850.19;1043932;28;20053;-75
2022/07/27 01:30:57;;;;;;;2.65;1.17;;;;;;;10.09;100.00;101845.47;1049060;28;20310;-76
2022/07/27 01:31:29;;;;;;;1.73;1.25;;;;;;;10.11;100.00;101850.63;1052013;28;20325;-75
2022/07/27 01:32:03;;;;;;;1.60;1.20;;;;;;;10.07;100.00;101844.84;1048171;28;20455;-77
2022/07/27 01:32:34;;;;;;;1.83;1.23;;;;;;;10.01;100.00;101850.09;1043331;28;20801;-75
2022/07/27 01:33:07;;;;;;;1.55;0.80;;;;;;;10.11;100.00;101856.78;1043525;28;20853;-75
2022/07/27 01:33:39;;;;;;;5.85;1.27;;;;;;;10.05;100.00;101857.53;1040377;28;20304;-76
2022/07/27 01:34:10;;;;;;;0.95;0.93;;;;;;;10.15;100.00;101862.56;1044358;28;20671;-75
2022/07/27 01:34:42;;;;;;;1.75;1.33;;;;;;;10.13;100.00;101853.91;1044100;28;20303;-76
2022/07/27 01:35:13;;;;;;;1.50;0.90;;;;;;;10.11;100.00;101851.44;1039469;28;20341;-76
2022/07/27 01:35:45;;;;;;;1.25;1.10;;;;;;;10.24;100.00;101857.97;1035491;28;20045;-76
2022/07/27 01:36:17;;;;;;;1.90;1.77;;;;;;;10.33;100.00;101859.50;1036812;28;20311;-75
2022/07/27 01:36:49;;;;;;;1.45;1.35;;;;;;;10.40;100.00;101861.19;1035177;28;20668;-76
2022/07/27 01:37:20;;;;;;;1.80;1.55;;;;;;;10.38;100.00;101857.09;1033192;28;20297;-75
2022/07/27 01:37:52;;;;;;;3.17;1.67;;;;;;;10.47;100.00;101858.63;1043066;28;20663;-75
2022/07/27 01:38:24;;;;;;;1.20;1.10;;;;;;;10.47;100.00;101866.63;1039630;28;20295;-76
2022/07/27 01:38:55;;;;;;;1.27;1.00;;;;;;;10.25;100.00;101863.09;1044363;28;20280;-76
2022/07/27 01:39:28;;;;;;;1.75;1.00;;;;;;;10.24;100.00;101856.13;1043262;28;20311;-75
2022/07/27 01:39:59;;;;;;;1.13;1.13;;;;;;;10.21;100.00;101862.66;1044292;28;20717;-76
2022/07/27 01:40:32;;;;;;;1.30;1.20;;;;;;;10.14;100.00;101858.25;1047593;28;20797;-75
2022/07/27 01:41:04;;;;;;;3.28;1.15;;;;;;;10.20;100.00;101858.34;1047856;28;20302;-76
2022/07/27 01:41:35;;;;;;;4.65;1.13;;;;;;;10.31;100.00;101850.88;1047596;28;20301;-76
2022/07/27 01:42:07;;;;;;;2.38;1.15;;;;;;;10.20;100.00;101855.69;1043366;28;20299;-76
2022/07/27 01:42:39;;;;;;;1.50;1.23;;;;;;;10.19;100.00;101854.00;1044650;28;20292;-75
2022/07/27 01:43:10;;;;;;;1.90;1.30;;;;;;;10.21;100.00;101857.34;1047574;28;20816;-75
2022/07/27 01:43:43;;;;;;;5.47;1.40;;;;;;;10.27;100.00;101861.06;1044011;28;20303;-75
2022/07/27 01:44:15;;;;;;;1.33;1.08;;;;;;;10.29;100.00;101859.06;1048050;28;20295;-76
2022/07/27 01:44:47;;;;;;;3.58;1.17;;;;;;;10.42;100.00;101863.69;1043168;28;20291;-76
2022/07/27 01:45:18;;;;;;;1.15;1.05;;;;;;;10.40;100.00;101861.19;1040000;28;20659;-76
2022/07/27 01:45:50;;;;;;;2.22;1.27;;;;;;;10.31;100.00;101861.53;1035390;28;20305;-76
2022/07/27 01:46:23;;;;;;;1.27;1.17;;;;;;;10.16;100.00;101848.25;1036577;28;20300;-76
2022/07/27 01:46:54;;;;;;;1.70;1.60;;;;;;;10.12;100.00;101857.59;1039592;28;20307;-76
2022/07/27 01:47:26;;;;;;;1.55;1.02;;;;;;;10.16;100.00;101859.72;1039902;28;20311;-76
2022/07/27 01:47:58;;;;;;;1.38;0.80;;;;;;;10.17;100.00;101853.38;1043620;28;20441;-75
2022/07/27 01:48:29;;;;;;;1.55;1.30;;;;;;;10.18;100.00;101852.38;1039952;28;20655;-75
2022/07/27 01:49:02;;;;;;;1.58;0.90;;;;;;;10.14;100.00;101852.94;1039072;28;20421;-75
2022/07/27 01:49:34;;;;;;;0.90;0.90;;;;;;;10.11;100.00;101856.78;1038038;28;20292;-76
2022/07/27 01:50:06;;;;;;;4.07;1.10;;;;;;;10.11;100.00;101850.63;1039574;28;20295;-76
2022/07/27 01:50:37;;;;;;;2.35;1.05;;;;;;;10.11;100.00;101851.44;1039665;28;20299;-75
2022/07/27 01:51:09;;;;;;;2.67;1.40;;;;;;;10.18;100.00;101849.69;1044042;28;20350;-75
2022/07/27 01:51:41;;;;;;;1.40;1.10;;;;;;;10.14;100.00;101845.78;1048194;28;20301;-76
2022/07/27 01:52:14;;;;;;;2.28;1.20;;;;;;;10.07;100.00;101844.03;1047519;28;20305;-75
2022/07/27 01:52:46;;;;;;;2.25;1.30;;;;;;;10.08;100.00;101845.69;1047518;28;20310;-75
2022/07/27 01:53:18;;;;;;;1.77;1.10;;;;;;;10.08;100.00;101851.81;1045563;28;20364;-76
2022/07/27 01:53:50;;;;;;;3.08;1.10;;;;;;;10.09;100.00;101845.47;1044637;28;20790;-75
2022/07/27 01:54:21;;;;;;;1.23;0.80;;;;;;;10.10;100.00;101846.31;1051799;28;20668;-75
2022/07/27 01:54:53;;;;;;;6.13;1.40;;;;;;;10.17;100.00;101845.41;1052040;28;20657;-76
2022/07/27 01:55:25;;;;;;;2.83;1.35;;;;;;;10.19;100.00;101848.69;1050721;28;20286;-76
2022/07/27 01:56:01;;;;;;;8.23;1.33;;;;;;;10.13;100.00;101846.75;1043342;28;20623;-76
2022/07/27 01:56:33;;;;;;;2.50;1.33;;;;;;;10.18;100.00;101841.72;1043365;28;20310;-75
2022/07/27 01:57:04;;;;;;;5.40;1.73;;;;;;;10.17;100.00;101845.41;1039471;28;20794;-75
2022/07/27 01:57:37;;;;;;;2.50;1.48;;;;;;;10.25;100.00;101843.66;1039692;28;20327;-76
2022/07/27 01:58:09;;;;;;;2.00;1.00;;;;;;;10.26;100.00;101850.63;1035294;28;20667;-75
2022/07/27 01:58:41;;;;;;;7.05;1.17;;;;;;;10.17;100.00;101845.41;1031880;28;20317;-75
2022/07/27 01:59:13;;;;;;;2.72;1.42;;;;;;;10.21;100.00;101844.03;1035433;28;20296;-75
2022/07/27 01:59:47;;;;;;;3.70;1.48;;;;;;;10.23;100.00;101848.34;1037392;28;20297;-76
2022/07/27 02:00:19;;;;;;;1.15;1.00;;;;;;;10.16;100.00;101846.41;1040189;28;20300;-75
2022/07/27 02:00:50;;;;;;;2.22;1.17;;;;;;;10.15;100.00;101841.28;1039253;28;20303;-75
2022/07/27 02:01:22;;;;;;;4.60;1.60;;;;;;;10.14;100.00;101843.09;1039236;28;20296;-75
2022/07/27 02:01:53;;;;;;;4.53;1.00;;;;;;;10.26;100.00;101842.63;1038943;28;20306;-75
2022/07/27 02:02:25;;;;;;;4.93;1.40;;;;;;;10.28;100.00;101845.94;1043842;28;20315;-75
2022/07/27 02:02:57;;;;;;;3.58;1.38;;;;;;;10.38;100.00;101839.25;1047645;28;20298;-75
2022/07/27 02:03:28;;;;;;;2.65;1.15;;;;;;;10.44;100.00;101843.03;1046652;28;20306;-75
2022/07/27 02:04:00;;;;;;;3.03;1.30;;;;;;;10.58;100.00;101842.13;1042658;28;21020;-75
2022/07/27 02:04:31;;;;;;;1.55;1.45;;;;;;;10.62;100.00;101842.56;1038893;28;20280;-75
2022/07/27 02:05:03;;;;;;;4.57;1.55;;;;;;;10.62;100.00;101846.03;1038413;28;20815;-75
2022/07/27 02:05:36;;;;;;;1.45;1.35;;;;;;;10.57;100.00;101845.78;1035191;28;20659;-76
2022/07/27 02:06:08;;;;;;;3.53;1.33;;;;;;;10.51;100.00;101846.56;1030751;28;20296;-76
2022/07/27 02:06:40;;;;;;;2.33;1.50;;;;;;;10.52;100.00;101841.03;1028519;28;20470;-76
2022/07/27 02:07:12;;;;;;;1.40;1.30;;;;;;;10.53;100.00;101849.88;1030761;28;20305;-75
2022/07/27 02:07:43;;;;;;;1.40;1.30;;;;;;;10.60;100.00;101848.06;1031914;28;20665;-75
2022/07/27 02:08:15;;;;;;;1.55;1.33;;;;;;;10.57;100.00;101848.47;1029351;28;20313;-75
2022/07/27 02:08:46;;;;;;;1.30;1.20;;;;;;;10.63;100.00;101845.03;1035403;28;20296;-75
2022/07/27 02:09:19;;;;;;;4.15;1.58;;;;;;;10.61;100.00;101847.06;1034914;28;20303;-75
2022/07/27 02:09:51;;;;;;;2.20;1.50;;;;;;;10.57;100.00;101845.78;1036135;28;20325;-76
2022/07/27 02:10:23;;;;;;;3.08;1.52;;;;;;;10.57;100.00;101848.47;1039263;28;20318;-75
2022/07/27 02:12:45;;;;;;;2.53;1.25;;;;;;;10.70;100.00;101843.25;1030834;28;20051;-75
2022/07/27 02:13:17;;;;;;;3.25;1.55;;;;;;;10.73;100.00;101844.72;1030971;28;20308;-76
2022/07/27 02:13:53;;;;;;;2.85;2.05;;;;;;;10.69;100.00;101838.94;1035062;28;20855;-75
2022/07/27 02:14:25;;;;;;;2.65;1.30;;;;;;;10.66;100.00;101849.97;1031183;28;20324;-75
2022/07/27 02:14:56;;;;;;;4.22;1.48;;;;;;;10.58;100.00;101836.78;1030675;28;20315;-75
2022/07/27 02:15:36;;;;;;;1.40;1.30;;;;;;;10.69;100.00;101838.94;1026687;28;20301;-75
2022/07/27 02:16:18;;;;;;;4.82;2.00;;;;;;;10.80;100.00;101838.41;1032227;28;20409;-75
2022/07/27 02:16:50;;;;;;;1.23;1.05;;;;;;;10.73;100.00;101834.88;1031153;28;20353;-75
2022/07/27 02:17:22;;;;;;;3.70;1.02;;;;;;;10.67;100.00;101840.94;1034510;28;20296;-75
2022/07/27 02:17:54;;;;;;;3.25;1.27;;;;;;;10.62;100.00;101846.03;1034992;28;20296;-76
2022/07/27 02:18:26;;;;;;;3.35;1.42;;;;;;;10.65;100.00;101842.16;1027808;28;20298;-76
2022/07/27 02:19:06;;;;;;;6.10;1.02;;;;;;;10.64;100.00;101841.34;1030815;28;20360;-76
2022/07/27 02:19:39;;;;;;;2.15;1.15;;;;;;;10.69;100.00;101838.94;1027173;28;20043;-76
2022/07/27 02:20:16;;;;;;;3.05;1.63;;;;;;;10.61;100.00;101839.06;1031702;28;20297;-76
2022/07/27 02:20:48;;;;;;;1.92;1.38;;;;;;;10.66;100.00;101835.81;1033353;28;20301;-76
2022/07/27 02:21:21;;;;;;;5.50;1.23;;;;;;;10.62;100.00;101838.03;1036672;28;20297;-76
2022/07/27 02:21:53;;;;;;;1.23;1.10;;;;;;;10.55;100.00;101839.84;1039082;28;20306;-75
2022/07/27 02:22:25;;;;;;;2.88;1.52;;;;;;;10.62;100.00;101843.38;1038779;28;20299;-76
2022/07/27 02:22:56;;;;;;;2.38;1.60;;;;;;;10.59;100.00;101840.28;1029682;28;20297;-75
2022/07/27 02:23:30;;;;;;;3.13;1.17;;;;;;;10.55;100.00;101837.16;1030835;28;20305;-75
2022/07/27 02:24:01;;;;;;;1.35;1.23;;;;;;;10.55;100.00;101837.16;1027174;28;20310;-76
2022/07/27 02:24:34;;;;;;;1.95;1.10;;;;;;;10.69;100.00;101844.28;1024395;28;20779;-75
2022/07/27 02:25:06;;;;;;;1.75;1.27;;;;;;;10.75;100.00;101838.19;1027853;28;20309;-75
2022/07/27 02:25:39;;;;;;;4.60;1.10;;;;;;;10.67;100.00;101840.13;1027723;28;20301;-75
2022/07/27 02:26:11;;;;;;;1.70;1.13;;;;;;;10.54;100.00;101840.84;1031482;28;20335;-75
2022/07/27 02:26:42;;;;;;;3.63;1.45;;;;;;;10.55;100.00;101839.84;1035272;28;20289;-76
2022/07/27 02:27:14;;;;;;;1.33;1.20;;;;;;;10.63;100.00;101839.69;1031760;28;20305;-75
2022/07/27 02:27:47;;;;;;;2.65;2.15;;;;;;;10.80;100.00;101838.41;1026935;28;20324;-75
2022/07/27 02:28:19;;;;;;;1.70;1.23;;;;;;;10.78;100.00;101840.44;1025155;28;20716;-75
2022/07/27 02:28:50;;;;;;;1.13;1.10;;;;;;;10.70;100.00;101835.28;1024166;28;20345;-75
2022/07/27 02:29:22;;;;;;;1.38;1.27;;;;;;;10.68;100.00;101837.31;1027571;28;20298;-75
2022/07/27 02:29:53;;;;;;;3.03;1.42;;;;;;;10.69;100.00;101838.13;1031723;28;20665;-75
2022/07/27 02:30:26;;;;;;;2.42;1.00;;;;;;;10.66;100.00;101838.47;1030821;28;20328;-75